sensor_id;sensor_type;location;lat;lon;timestamp;temperature;humidity
64961;SHT31;51487;52.266;10.542;2023-08-12T00:00:20;20.47;81.76
64961;SHT31;51487;52.266;10.542;2023-08-12T00:02:46;20.49;81.87
64961;SHT31;51487;52.266;10.542;2023-08-12T00:05:12;20.46;81.93
64961;SHT31;51487;52.266;10.542;2023-08-12T00:07:40;20.46;81.96
64961;SHT31;51487;52.266;10.542;2023-08-12T00:10:10;20.46;81.95
64961;SHT31;51487;52.266;10.542;2023-08-12T00:12:37;20.43;82.06
64961;SHT31;51487;52.266;10.542;2023-08-12T00:15:05;20.44;81.86
64961;SHT31;51487;52.266;10.542;2023-08-12T00:17:33;20.42;81.85
64961;SHT31;51487;52.266;10.542;2023-08-12T00:20:00;20.52;82.03
64961;SHT31;51487;52.266;10.542;2023-08-12T00:22:25;20.53;81.77
64961;SHT31;51487;52.266;10.542;2023-08-12T00:24:51;20.46;81.88
64961;SHT31;51487;52.266;10.542;2023-08-12T00:27:18;20.42;81.99
64961;SHT31;51487;52.266;10.542;2023-08-12T00:29:43;20.42;81.95
64961;SHT31;51487;52.266;10.542;2023-08-12T00:32:09;20.39;82.09
64961;SHT31;51487;52.266;10.542;2023-08-12T00:34:35;20.36;82.08
64961;SHT31;51487;52.266;10.542;2023-08-12T00:37:01;20.34;82.26
64961;SHT31;51487;52.266;10.542;2023-08-12T00:39:26;20.33;82.46
64961;SHT31;51487;52.266;10.542;2023-08-12T00:41:52;20.30;82.34
64961;SHT31;51487;52.266;10.542;2023-08-12T00:44:17;20.33;82.45
64961;SHT31;51487;52.266;10.542;2023-08-12T00:46:43;20.34;82.42
64961;SHT31;51487;52.266;10.542;2023-08-12T00:49:10;20.32;82.43
64961;SHT31;51487;52.266;10.542;2023-08-12T00:51:39;20.32;82.73
64961;SHT31;51487;52.266;10.542;2023-08-12T00:54:13;20.30;82.41
64961;SHT31;51487;52.266;10.542;2023-08-12T00:56:39;20.32;82.38
64961;SHT31;51487;52.266;10.542;2023-08-12T00:59:08;20.30;82.30
64961;SHT31;51487;52.266;10.542;2023-08-12T01:01:35;20.30;82.41
64961;SHT31;51487;52.266;10.542;2023-08-12T01:04:04;20.29;82.42
64961;SHT31;51487;52.266;10.542;2023-08-12T01:06:29;20.30;82.34
64961;SHT31;51487;52.266;10.542;2023-08-12T01:08:55;20.30;82.52
64961;SHT31;51487;52.266;10.542;2023-08-12T01:17:00;20.33;82.35
64961;SHT31;51487;52.266;10.542;2023-08-12T01:19:38;20.33;82.39
64961;SHT31;51487;52.266;10.542;2023-08-12T01:22:07;20.29;82.43
64961;SHT31;51487;52.266;10.542;2023-08-12T01:24:41;20.28;82.56
64961;SHT31;51487;52.266;10.542;2023-08-12T01:27:08;20.25;82.64
64961;SHT31;51487;52.266;10.542;2023-08-12T01:29:41;20.32;82.67
64961;SHT31;51487;52.266;10.542;2023-08-12T01:32:45;20.30;82.45
64961;SHT31;51487;52.266;10.542;2023-08-12T01:35:21;20.30;82.56
64961;SHT31;51487;52.266;10.542;2023-08-12T01:37:52;20.22;82.61
64961;SHT31;51487;52.266;10.542;2023-08-12T01:40:19;20.19;82.71
64961;SHT31;51487;52.266;10.542;2023-08-12T01:42:46;20.18;82.78
64961;SHT31;51487;52.266;10.542;2023-08-12T01:45:11;20.16;82.75
64961;SHT31;51487;52.266;10.542;2023-08-12T01:47:37;20.19;82.75
64961;SHT31;51487;52.266;10.542;2023-08-12T01:50:04;20.16;82.74
64961;SHT31;51487;52.266;10.542;2023-08-12T01:52:30;20.16;82.69
64961;SHT31;51487;52.266;10.542;2023-08-12T01:54:55;20.18;82.70
64961;SHT31;51487;52.266;10.542;2023-08-12T01:57:21;20.19;82.72
64961;SHT31;51487;52.266;10.542;2023-08-12T01:59:47;20.19;82.74
64961;SHT31;51487;52.266;10.542;2023-08-12T02:02:13;20.21;82.61
64961;SHT31;51487;52.266;10.542;2023-08-12T02:04:40;20.16;82.70
64961;SHT31;51487;52.266;10.542;2023-08-12T02:07:07;20.13;82.99
64961;SHT31;51487;52.266;10.542;2023-08-12T02:09:33;20.13;82.77
64961;SHT31;51487;52.266;10.542;2023-08-12T02:11:58;20.12;82.75
64961;SHT31;51487;52.266;10.542;2023-08-12T02:14:24;20.13;82.65
64961;SHT31;51487;52.266;10.542;2023-08-12T02:16:49;20.16;82.58
64961;SHT31;51487;52.266;10.542;2023-08-12T02:19:15;20.18;82.82
64961;SHT31;51487;52.266;10.542;2023-08-12T02:25:21;20.12;82.67
64961;SHT31;51487;52.266;10.542;2023-08-12T02:27:47;20.09;82.75
64961;SHT31;51487;52.266;10.542;2023-08-12T02:30:12;20.06;82.81
64961;SHT31;51487;52.266;10.542;2023-08-12T02:32:37;20.06;82.82
64961;SHT31;51487;52.266;10.542;2023-08-12T02:35:03;20.04;82.81
64961;SHT31;51487;52.266;10.542;2023-08-12T02:37:29;20.02;82.93
64961;SHT31;51487;52.266;10.542;2023-08-12T02:39:54;20.02;83.09
64961;SHT31;51487;52.266;10.542;2023-08-12T02:42:20;20.02;83.02
64961;SHT31;51487;52.266;10.542;2023-08-12T02:44:45;20.04;83.05
64961;SHT31;51487;52.266;10.542;2023-08-12T02:47:11;20.08;83.06
64961;SHT31;51487;52.266;10.542;2023-08-12T02:49:36;20.05;83.04
64961;SHT31;51487;52.266;10.542;2023-08-12T02:52:02;20.06;83.04
64961;SHT31;51487;52.266;10.542;2023-08-12T02:54:28;20.05;83.03
64961;SHT31;51487;52.266;10.542;2023-08-12T02:56:53;20.02;82.97
64961;SHT31;51487;52.266;10.542;2023-08-12T02:59:19;20.06;82.82
64961;SHT31;51487;52.266;10.542;2023-08-12T03:01:44;20.04;83.51
64961;SHT31;51487;52.266;10.542;2023-08-12T03:04:10;20.11;83.46
64961;SHT31;51487;52.266;10.542;2023-08-12T03:06:36;20.12;83.01
64961;SHT31;51487;52.266;10.542;2023-08-12T03:09:02;20.11;82.82
64961;SHT31;51487;52.266;10.542;2023-08-12T03:11:27;20.11;82.82
64961;SHT31;51487;52.266;10.542;2023-08-12T03:13:53;20.13;82.83
64961;SHT31;51487;52.266;10.542;2023-08-12T03:16:18;20.15;82.64
64961;SHT31;51487;52.266;10.542;2023-08-12T03:18:44;20.16;82.61
64961;SHT31;51487;52.266;10.542;2023-08-12T03:21:10;20.22;82.51
64961;SHT31;51487;52.266;10.542;2023-08-12T03:23:37;20.26;82.78
64961;SHT31;51487;52.266;10.542;2023-08-12T03:26:03;20.29;82.31
64961;SHT31;51487;52.266;10.542;2023-08-12T03:28:30;20.32;82.17
64961;SHT31;51487;52.266;10.542;2023-08-12T03:30:55;20.37;81.98
64961;SHT31;51487;52.266;10.542;2023-08-12T03:33:21;20.42;82.29
64961;SHT31;51487;52.266;10.542;2023-08-12T03:35:49;20.46;81.78
64961;SHT31;51487;52.266;10.542;2023-08-12T03:38:16;20.50;81.22
64961;SHT31;51487;52.266;10.542;2023-08-12T03:40:42;20.62;81.25
64961;SHT31;51487;52.266;10.542;2023-08-12T03:43:08;20.64;81.17
64961;SHT31;51487;52.266;10.542;2023-08-12T03:45:43;20.62;80.96
64961;SHT31;51487;52.266;10.542;2023-08-12T03:48:09;20.66;81.06
64961;SHT31;51487;52.266;10.542;2023-08-12T03:50:37;20.66;80.79
64961;SHT31;51487;52.266;10.542;2023-08-12T03:53:03;20.67;80.99
64961;SHT31;51487;52.266;10.542;2023-08-12T03:55:32;20.74;81.12
64961;SHT31;51487;52.266;10.542;2023-08-12T03:57:59;20.70;80.43
64961;SHT31;51487;52.266;10.542;2023-08-12T04:00:25;20.71;80.99
64961;SHT31;51487;52.266;10.542;2023-08-12T04:02:51;20.74;80.86
64961;SHT31;51487;52.266;10.542;2023-08-12T04:05:16;20.77;80.54
64961;SHT31;51487;52.266;10.542;2023-08-12T04:07:42;20.83;80.32
64961;SHT31;51487;52.266;10.542;2023-08-12T04:10:08;20.74;80.09
64961;SHT31;51487;52.266;10.542;2023-08-12T04:12:34;20.77;80.37
64961;SHT31;51487;52.266;10.542;2023-08-12T04:15:00;20.79;80.07
64961;SHT31;51487;52.266;10.542;2023-08-12T04:17:28;20.92;79.68
64961;SHT31;51487;52.266;10.542;2023-08-12T04:19:54;20.87;79.88
64961;SHT31;51487;52.266;10.542;2023-08-12T04:22:19;20.76;80.40
64961;SHT31;51487;52.266;10.542;2023-08-12T04:24:45;20.64;80.96
64961;SHT31;51487;52.266;10.542;2023-08-12T04:27:10;20.50;81.31
64961;SHT31;51487;52.266;10.542;2023-08-12T04:29:36;20.44;81.59
64961;SHT31;51487;52.266;10.542;2023-08-12T04:32:01;20.42;81.69
64961;SHT31;51487;52.266;10.542;2023-08-12T04:34:27;20.39;82.11
64961;SHT31;51487;52.266;10.542;2023-08-12T04:36:52;20.30;82.48
64961;SHT31;51487;52.266;10.542;2023-08-12T04:39:17;20.26;82.67
64961;SHT31;51487;52.266;10.542;2023-08-12T04:41:43;20.25;82.76
64961;SHT31;51487;52.266;10.542;2023-08-12T04:44:08;20.22;83.33
64961;SHT31;51487;52.266;10.542;2023-08-12T04:46:34;20.32;83.35
64961;SHT31;51487;52.266;10.542;2023-08-12T04:48:59;20.32;82.98
64961;SHT31;51487;52.266;10.542;2023-08-12T04:51:25;20.37;82.76
64961;SHT31;51487;52.266;10.542;2023-08-12T04:53:50;20.43;82.71
64961;SHT31;51487;52.266;10.542;2023-08-12T04:56:16;20.46;83.01
64961;SHT31;51487;52.266;10.542;2023-08-12T04:58:41;20.47;82.79
64961;SHT31;51487;52.266;10.542;2023-08-12T05:01:08;20.43;82.78
64961;SHT31;51487;52.266;10.542;2023-08-12T05:03:33;20.46;82.67
64961;SHT31;51487;52.266;10.542;2023-08-12T05:05:59;20.42;82.89
64961;SHT31;51487;52.266;10.542;2023-08-12T05:08:24;20.43;82.83
64961;SHT31;51487;52.266;10.542;2023-08-12T05:10:50;20.44;83.29
64961;SHT31;51487;52.266;10.542;2023-08-12T05:13:16;20.46;83.20
64961;SHT31;51487;52.266;10.542;2023-08-12T05:15:48;20.49;84.06
64961;SHT31;51487;52.266;10.542;2023-08-12T05:18:14;20.49;84.47
64961;SHT31;51487;52.266;10.542;2023-08-12T05:20:41;20.43;84.99
64961;SHT31;51487;52.266;10.542;2023-08-12T05:23:07;20.33;86.56
64961;SHT31;51487;52.266;10.542;2023-08-12T05:25:33;20.26;87.11
64961;SHT31;51487;52.266;10.542;2023-08-12T05:27:58;20.25;87.40
64961;SHT31;51487;52.266;10.542;2023-08-12T05:30:24;20.21;88.10
64961;SHT31;51487;52.266;10.542;2023-08-12T05:32:49;20.09;88.99
64961;SHT31;51487;52.266;10.542;2023-08-12T05:35:15;20.08;89.90
64961;SHT31;51487;52.266;10.542;2023-08-12T05:37:40;20.02;90.07
64961;SHT31;51487;52.266;10.542;2023-08-12T05:40:08;20.01;90.82
64961;SHT31;51487;52.266;10.542;2023-08-12T05:42:35;19.92;91.90
64961;SHT31;51487;52.266;10.542;2023-08-12T05:45:02;19.91;92.35
64961;SHT31;51487;52.266;10.542;2023-08-12T05:47:28;19.86;93.25
64961;SHT31;51487;52.266;10.542;2023-08-12T05:49:54;19.81;93.25
64961;SHT31;51487;52.266;10.542;2023-08-12T05:52:19;19.81;93.51
64961;SHT31;51487;52.266;10.542;2023-08-12T05:54:44;19.82;94.55
64961;SHT31;51487;52.266;10.542;2023-08-12T05:57:10;19.86;94.62
64961;SHT31;51487;52.266;10.542;2023-08-12T05:59:35;19.91;94.68
64961;SHT31;51487;52.266;10.542;2023-08-12T06:02:01;19.96;94.40
64961;SHT31;51487;52.266;10.542;2023-08-12T06:04:26;19.98;93.96
64961;SHT31;51487;52.266;10.542;2023-08-12T06:06:52;20.08;94.32
64961;SHT31;51487;52.266;10.542;2023-08-12T06:09:17;20.12;93.40
64961;SHT31;51487;52.266;10.542;2023-08-12T06:11:43;20.19;93.70
64961;SHT31;51487;52.266;10.542;2023-08-12T06:14:08;20.25;93.79
64961;SHT31;51487;52.266;10.542;2023-08-12T06:16:35;20.32;93.61
64961;SHT31;51487;52.266;10.542;2023-08-12T06:19:00;20.36;92.99
64961;SHT31;51487;52.266;10.542;2023-08-12T06:21:26;20.30;93.78
64961;SHT31;51487;52.266;10.542;2023-08-12T06:23:52;20.26;93.54
64961;SHT31;51487;52.266;10.542;2023-08-12T06:26:17;20.30;93.61
64961;SHT31;51487;52.266;10.542;2023-08-12T06:28:43;20.30;94.74
64961;SHT31;51487;52.266;10.542;2023-08-12T06:31:08;20.39;94.41
64961;SHT31;51487;52.266;10.542;2023-08-12T06:33:34;20.39;93.61
64961;SHT31;51487;52.266;10.542;2023-08-12T06:35:59;20.42;93.58
64961;SHT31;51487;52.266;10.542;2023-08-12T06:38:25;20.44;92.39
64961;SHT31;51487;52.266;10.542;2023-08-12T06:40:50;20.49;91.78
64961;SHT31;51487;52.266;10.542;2023-08-12T06:43:16;20.47;92.23
64961;SHT31;51487;52.266;10.542;2023-08-12T06:45:41;20.44;93.71
64961;SHT31;51487;52.266;10.542;2023-08-12T06:48:07;20.44;93.10
64961;SHT31;51487;52.266;10.542;2023-08-12T06:50:32;20.53;92.01
64961;SHT31;51487;52.266;10.542;2023-08-12T06:52:59;20.54;92.96
64961;SHT31;51487;52.266;10.542;2023-08-12T06:55:24;20.53;92.56
64961;SHT31;51487;52.266;10.542;2023-08-12T06:57:50;20.60;93.24
64961;SHT31;51487;52.266;10.542;2023-08-12T07:00:15;20.59;93.68
64961;SHT31;51487;52.266;10.542;2023-08-12T07:02:41;20.53;93.51
64961;SHT31;51487;52.266;10.542;2023-08-12T07:05:08;20.56;92.34
64961;SHT31;51487;52.266;10.542;2023-08-12T07:07:34;20.52;93.80
64961;SHT31;51487;52.266;10.542;2023-08-12T07:09:59;20.59;93.75
64961;SHT31;51487;52.266;10.542;2023-08-12T07:12:25;20.63;93.82
64961;SHT31;51487;52.266;10.542;2023-08-12T07:14:50;20.62;93.75
64961;SHT31;51487;52.266;10.542;2023-08-12T07:17:16;20.77;93.55
64961;SHT31;51487;52.266;10.542;2023-08-12T07:19:41;20.73;94.11
64961;SHT31;51487;52.266;10.542;2023-08-12T07:22:07;20.85;93.77
64961;SHT31;51487;52.266;10.542;2023-08-12T07:24:33;20.85;93.75
64961;SHT31;51487;52.266;10.542;2023-08-12T07:26:58;20.90;92.89
64961;SHT31;51487;52.266;10.542;2023-08-12T07:29:24;20.95;92.69
64961;SHT31;51487;52.266;10.542;2023-08-12T07:31:49;21.01;92.99
64961;SHT31;51487;52.266;10.542;2023-08-12T07:34:15;21.00;92.72
64961;SHT31;51487;52.266;10.542;2023-08-12T07:36:40;20.92;92.96
64961;SHT31;51487;52.266;10.542;2023-08-12T07:39:07;20.97;93.13
64961;SHT31;51487;52.266;10.542;2023-08-12T07:41:32;20.88;93.47
64961;SHT31;51487;52.266;10.542;2023-08-12T07:43:58;20.97;93.77
64961;SHT31;51487;52.266;10.542;2023-08-12T07:46:24;20.95;93.75
64961;SHT31;51487;52.266;10.542;2023-08-12T07:48:49;21.01;92.83
64961;SHT31;51487;52.266;10.542;2023-08-12T07:51:15;20.94;93.43
64961;SHT31;51487;52.266;10.542;2023-08-12T07:53:40;21.01;93.46
64961;SHT31;51487;52.266;10.542;2023-08-12T07:56:06;21.02;93.40
64961;SHT31;51487;52.266;10.542;2023-08-12T07:58:31;20.97;93.40
64961;SHT31;51487;52.266;10.542;2023-08-12T08:00:57;20.98;93.46
64961;SHT31;51487;52.266;10.542;2023-08-12T08:03:22;21.10;93.44
64961;SHT31;51487;52.266;10.542;2023-08-12T08:05:48;21.20;93.04
64961;SHT31;51487;52.266;10.542;2023-08-12T08:08:14;21.14;93.31
64961;SHT31;51487;52.266;10.542;2023-08-12T08:10:39;21.15;93.48
64961;SHT31;51487;52.266;10.542;2023-08-12T08:13:05;21.11;93.50
64961;SHT31;51487;52.266;10.542;2023-08-12T08:15:30;21.14;93.63
64961;SHT31;51487;52.266;10.542;2023-08-12T08:17:56;21.18;93.48
64961;SHT31;51487;52.266;10.542;2023-08-12T08:20:22;21.15;93.47
64961;SHT31;51487;52.266;10.542;2023-08-12T08:22:47;21.12;93.24
64961;SHT31;51487;52.266;10.542;2023-08-12T08:25:13;21.04;93.08
64961;SHT31;51487;52.266;10.542;2023-08-12T08:27:38;21.07;93.07
64961;SHT31;51487;52.266;10.542;2023-08-12T08:30:06;21.22;92.84
64961;SHT31;51487;52.266;10.542;2023-08-12T08:32:31;21.32;92.40
64961;SHT31;51487;52.266;10.542;2023-08-12T08:34:57;21.48;91.47
64961;SHT31;51487;52.266;10.542;2023-08-12T08:37:22;21.59;91.41
64961;SHT31;51487;52.266;10.542;2023-08-12T08:39:48;21.78;90.66
64961;SHT31;51487;52.266;10.542;2023-08-12T08:42:15;21.79;89.94
64961;SHT31;51487;52.266;10.542;2023-08-12T08:44:42;21.83;90.22
64961;SHT31;51487;52.266;10.542;2023-08-12T08:47:08;21.79;89.74
64961;SHT31;51487;52.266;10.542;2023-08-12T08:49:36;21.82;90.34
64961;SHT31;51487;52.266;10.542;2023-08-12T08:52:02;21.86;89.78
64961;SHT31;51487;52.266;10.542;2023-08-12T08:54:28;21.90;89.55
64961;SHT31;51487;52.266;10.542;2023-08-12T08:56:54;21.80;90.41
64961;SHT31;51487;52.266;10.542;2023-08-12T08:59:20;21.80;90.23
64961;SHT31;51487;52.266;10.542;2023-08-12T09:01:49;21.76;90.12
64961;SHT31;51487;52.266;10.542;2023-08-12T09:04:17;21.65;90.39
64961;SHT31;51487;52.266;10.542;2023-08-12T09:06:44;21.59;90.64
64961;SHT31;51487;52.266;10.542;2023-08-12T09:09:14;21.58;90.81
64961;SHT31;51487;52.266;10.542;2023-08-12T09:11:41;21.55;91.07
64961;SHT31;51487;52.266;10.542;2023-08-12T09:14:07;21.56;90.79
64961;SHT31;51487;52.266;10.542;2023-08-12T09:16:32;21.58;90.61
64961;SHT31;51487;52.266;10.542;2023-08-12T09:18:58;21.48;90.92
64961;SHT31;51487;52.266;10.542;2023-08-12T09:21:24;21.46;90.40
64961;SHT31;51487;52.266;10.542;2023-08-12T09:23:49;21.45;90.65
64961;SHT31;51487;52.266;10.542;2023-08-12T09:26:20;21.46;91.04
64961;SHT31;51487;52.266;10.542;2023-08-12T09:28:47;21.43;91.80
64961;SHT31;51487;52.266;10.542;2023-08-12T09:31:28;21.38;90.64
64961;SHT31;51487;52.266;10.542;2023-08-12T09:33:58;21.38;91.04
64961;SHT31;51487;52.266;10.542;2023-08-12T09:36:28;21.42;91.73
64961;SHT31;51487;52.266;10.542;2023-08-12T09:38:56;21.50;92.02
64961;SHT31;51487;52.266;10.542;2023-08-12T09:41:24;21.62;92.31
64961;SHT31;51487;52.266;10.542;2023-08-12T09:43:51;21.60;92.58
64961;SHT31;51487;52.266;10.542;2023-08-12T09:46:21;21.62;92.20
64961;SHT31;51487;52.266;10.542;2023-08-12T09:48:50;21.55;91.74
64961;SHT31;51487;52.266;10.542;2023-08-12T09:51:20;21.62;91.98
64961;SHT31;51487;52.266;10.542;2023-08-12T09:53:48;21.58;91.86
64961;SHT31;51487;52.266;10.542;2023-08-12T09:56:20;21.59;92.36
64961;SHT31;51487;52.266;10.542;2023-08-12T09:58:49;21.49;92.23
64961;SHT31;51487;52.266;10.542;2023-08-12T10:01:19;21.59;91.97
64961;SHT31;51487;52.266;10.542;2023-08-12T10:03:49;21.63;90.86
64961;SHT31;51487;52.266;10.542;2023-08-12T10:06:17;21.75;90.69
64961;SHT31;51487;52.266;10.542;2023-08-12T10:08:46;21.80;90.34
64961;SHT31;51487;52.266;10.542;2023-08-12T10:11:12;22.09;89.93
64961;SHT31;51487;52.266;10.542;2023-08-12T10:13:40;22.21;89.47
64961;SHT31;51487;52.266;10.542;2023-08-12T10:16:06;22.21;89.12
64961;SHT31;51487;52.266;10.542;2023-08-12T10:18:33;22.11;89.66
64961;SHT31;51487;52.266;10.542;2023-08-12T10:20:59;22.03;89.03
64961;SHT31;51487;52.266;10.542;2023-08-12T10:23:25;22.04;89.08
64961;SHT31;51487;52.266;10.542;2023-08-12T10:25:53;22.09;89.09
64961;SHT31;51487;52.266;10.542;2023-08-12T10:28:20;22.10;88.96
64961;SHT31;51487;52.266;10.542;2023-08-12T10:30:46;22.18;88.96
64961;SHT31;51487;52.266;10.542;2023-08-12T10:33:14;22.25;87.86
64961;SHT31;51487;52.266;10.542;2023-08-12T10:35:48;22.44;89.12
64961;SHT31;51487;52.266;10.542;2023-08-12T10:38:17;22.57;87.51
64961;SHT31;51487;52.266;10.542;2023-08-12T10:40:43;22.72;86.58
64961;SHT31;51487;52.266;10.542;2023-08-12T10:43:12;22.89;86.37
64961;SHT31;51487;52.266;10.542;2023-08-12T10:45:57;23.22;85.92
64961;SHT31;51487;52.266;10.542;2023-08-12T10:48:25;23.57;85.06
64961;SHT31;51487;52.266;10.542;2023-08-12T10:50:59;24.01;84.27
64961;SHT31;51487;52.266;10.542;2023-08-12T10:53:32;24.04;83.38
64961;SHT31;51487;52.266;10.542;2023-08-12T10:56:03;23.98;83.34
64961;SHT31;51487;52.266;10.542;2023-08-12T10:58:34;24.13;83.04
64961;SHT31;51487;52.266;10.542;2023-08-12T11:00:59;24.23;83.05
64961;SHT31;51487;52.266;10.542;2023-08-12T11:03:25;24.39;82.60
64961;SHT31;51487;52.266;10.542;2023-08-12T11:05:53;24.50;82.83
64961;SHT31;51487;52.266;10.542;2023-08-12T11:08:26;24.60;81.55
64961;SHT31;51487;52.266;10.542;2023-08-12T11:10:55;24.64;81.18
64961;SHT31;51487;52.266;10.542;2023-08-12T11:13:22;24.63;81.50
64961;SHT31;51487;52.266;10.542;2023-08-12T11:15:48;24.55;81.30
64961;SHT31;51487;52.266;10.542;2023-08-12T11:18:20;24.39;79.78
64961;SHT31;51487;52.266;10.542;2023-08-12T11:20:50;24.50;80.68
64961;SHT31;51487;52.266;10.542;2023-08-12T11:23:16;24.62;80.88
64961;SHT31;51487;52.266;10.542;2023-08-12T11:25:43;24.76;80.12
64961;SHT31;51487;52.266;10.542;2023-08-12T11:28:10;24.83;80.54
64961;SHT31;51487;52.266;10.542;2023-08-12T11:30:36;24.93;80.84
64961;SHT31;51487;52.266;10.542;2023-08-12T11:33:02;24.87;80.44
64961;SHT31;51487;52.266;10.542;2023-08-12T11:35:29;24.69;79.85
64961;SHT31;51487;52.266;10.542;2023-08-12T11:37:57;24.67;81.24
64961;SHT31;51487;52.266;10.542;2023-08-12T11:40:25;24.66;80.95
64961;SHT31;51487;52.266;10.542;2023-08-12T11:42:53;24.67;80.75
64961;SHT31;51487;52.266;10.542;2023-08-12T11:45:22;24.66;80.57
64961;SHT31;51487;52.266;10.542;2023-08-12T11:47:48;24.67;80.55
64961;SHT31;51487;52.266;10.542;2023-08-12T11:50:19;24.66;81.29
64961;SHT31;51487;52.266;10.542;2023-08-12T11:52:46;24.73;81.07
64961;SHT31;51487;52.266;10.542;2023-08-12T11:55:12;24.64;81.02
64961;SHT31;51487;52.266;10.542;2023-08-12T11:57:43;24.59;81.41
64961;SHT31;51487;52.266;10.542;2023-08-12T12:00:11;24.72;81.80
64961;SHT31;51487;52.266;10.542;2023-08-12T12:02:52;24.83;80.86
64961;SHT31;51487;52.266;10.542;2023-08-12T12:05:25;24.84;79.71
64961;SHT31;51487;52.266;10.542;2023-08-12T12:07:52;24.94;80.34
64961;SHT31;51487;52.266;10.542;2023-08-12T12:10:28;25.04;80.28
64961;SHT31;51487;52.266;10.542;2023-08-12T12:12:55;25.22;80.28
64961;SHT31;51487;52.266;10.542;2023-08-12T12:15:21;25.28;79.69
64961;SHT31;51487;52.266;10.542;2023-08-12T12:17:49;25.46;79.44
64961;SHT31;51487;52.266;10.542;2023-08-12T12:20:14;25.53;78.98
64961;SHT31;51487;52.266;10.542;2023-08-12T12:22:43;25.57;78.30
64961;SHT31;51487;52.266;10.542;2023-08-12T12:25:16;25.42;78.21
64961;SHT31;51487;52.266;10.542;2023-08-12T12:27:46;25.42;78.59
64961;SHT31;51487;52.266;10.542;2023-08-12T12:30:14;25.55;77.96
64961;SHT31;51487;52.266;10.542;2023-08-12T12:32:40;25.72;77.64
64961;SHT31;51487;52.266;10.542;2023-08-12T12:35:06;25.88;77.48
64961;SHT31;51487;52.266;10.542;2023-08-12T12:37:33;25.85;77.03
64961;SHT31;51487;52.266;10.542;2023-08-12T12:39:58;25.88;77.12
64961;SHT31;51487;52.266;10.542;2023-08-12T12:42:24;26.13;75.87
64961;SHT31;51487;52.266;10.542;2023-08-12T12:44:49;26.23;76.11
64961;SHT31;51487;52.266;10.542;2023-08-12T12:47:16;26.28;75.76
64961;SHT31;51487;52.266;10.542;2023-08-12T12:49:41;26.48;76.27
64961;SHT31;51487;52.266;10.542;2023-08-12T12:52:07;26.43;76.26
64961;SHT31;51487;52.266;10.542;2023-08-12T12:54:33;26.45;76.10
64961;SHT31;51487;52.266;10.542;2023-08-12T12:56:59;26.33;75.76
64961;SHT31;51487;52.266;10.542;2023-08-12T12:59:24;26.34;75.64
64961;SHT31;51487;52.266;10.542;2023-08-12T13:01:50;26.30;76.85
64961;SHT31;51487;52.266;10.542;2023-08-12T13:04:15;26.34;77.03
64961;SHT31;51487;52.266;10.542;2023-08-12T13:06:41;26.27;76.81
64961;SHT31;51487;52.266;10.542;2023-08-12T13:09:06;26.20;77.07
64961;SHT31;51487;52.266;10.542;2023-08-12T13:11:33;26.07;77.49
64961;SHT31;51487;52.266;10.542;2023-08-12T13:14:03;26.26;76.79
64961;SHT31;51487;52.266;10.542;2023-08-12T13:16:29;26.40;76.13
64961;SHT31;51487;52.266;10.542;2023-08-12T13:18:55;26.64;74.49
64961;SHT31;51487;52.266;10.542;2023-08-12T13:21:20;26.65;75.03
64961;SHT31;51487;52.266;10.542;2023-08-12T13:23:46;26.65;74.52
64961;SHT31;51487;52.266;10.542;2023-08-12T13:26:11;26.55;74.55
64961;SHT31;51487;52.266;10.542;2023-08-12T13:28:37;26.65;75.06
64961;SHT31;51487;52.266;10.542;2023-08-12T13:31:02;26.77;74.18
64961;SHT31;51487;52.266;10.542;2023-08-12T13:33:28;26.86;75.07
64961;SHT31;51487;52.266;10.542;2023-08-12T13:35:53;27.13;73.74
64961;SHT31;51487;52.266;10.542;2023-08-12T13:38:19;27.16;73.82
64961;SHT31;51487;52.266;10.542;2023-08-12T13:40:45;27.22;73.03
64961;SHT31;51487;52.266;10.542;2023-08-12T13:43:11;27.26;73.15
64961;SHT31;51487;52.266;10.542;2023-08-12T13:45:36;27.29;72.55
64961;SHT31;51487;52.266;10.542;2023-08-12T13:48:02;27.22;73.05
64961;SHT31;51487;52.266;10.542;2023-08-12T13:50:28;27.02;73.07
64961;SHT31;51487;52.266;10.542;2023-08-12T13:52:53;27.13;73.23
64961;SHT31;51487;52.266;10.542;2023-08-12T13:55:19;27.03;73.90
64961;SHT31;51487;52.266;10.542;2023-08-12T13:57:44;26.98;74.74
64961;SHT31;51487;52.266;10.542;2023-08-12T14:00:10;26.94;74.35
64961;SHT31;51487;52.266;10.542;2023-08-12T14:02:39;26.92;72.78
64961;SHT31;51487;52.266;10.542;2023-08-12T14:05:06;26.36;75.75
64961;SHT31;51487;52.266;10.542;2023-08-12T14:07:31;26.03;76.56
64961;SHT31;51487;52.266;10.542;2023-08-12T14:09:58;25.72;77.68
64961;SHT31;51487;52.266;10.542;2023-08-12T14:12:24;25.51;77.98
64961;SHT31;51487;52.266;10.542;2023-08-12T14:14:49;25.37;78.56
64961;SHT31;51487;52.266;10.542;2023-08-12T14:17:15;25.27;79.30
64961;SHT31;51487;52.266;10.542;2023-08-12T14:19:48;25.32;79.37
64961;SHT31;51487;52.266;10.542;2023-08-12T14:22:13;25.35;79.36
64961;SHT31;51487;52.266;10.542;2023-08-12T14:24:39;25.38;79.23
64961;SHT31;51487;52.266;10.542;2023-08-12T14:27:04;25.48;79.04
64961;SHT31;51487;52.266;10.542;2023-08-12T14:29:30;25.45;78.83
64961;SHT31;51487;52.266;10.542;2023-08-12T14:31:56;25.52;78.31
64961;SHT31;51487;52.266;10.542;2023-08-12T14:34:22;25.41;78.80
64961;SHT31;51487;52.266;10.542;2023-08-12T14:36:47;25.25;78.36
64961;SHT31;51487;52.266;10.542;2023-08-12T14:39:13;25.27;78.59
64961;SHT31;51487;52.266;10.542;2023-08-12T14:41:38;25.17;79.01
64961;SHT31;51487;52.266;10.542;2023-08-12T14:44:04;25.03;80.23
64961;SHT31;51487;52.266;10.542;2023-08-12T14:46:29;25.03;81.51
64961;SHT31;51487;52.266;10.542;2023-08-12T14:48:55;24.80;82.83
64961;SHT31;51487;52.266;10.542;2023-08-12T14:51:22;24.56;85.56
64961;SHT31;51487;52.266;10.542;2023-08-12T14:53:47;24.25;87.19
64961;SHT31;51487;52.266;10.542;2023-08-12T14:56:13;23.81;91.35
64961;SHT31;51487;52.266;10.542;2023-08-12T14:58:39;23.43;89.34
64961;SHT31;51487;52.266;10.542;2023-08-12T15:01:04;23.33;90.77
64961;SHT31;51487;52.266;10.542;2023-08-12T15:03:30;23.42;88.00
64961;SHT31;51487;52.266;10.542;2023-08-12T15:06:03;23.54;87.10
64961;SHT31;51487;52.266;10.542;2023-08-12T15:08:30;23.78;87.24
64961;SHT31;51487;52.266;10.542;2023-08-12T15:10:56;23.84;88.85
64961;SHT31;51487;52.266;10.542;2023-08-12T15:13:22;24.16;88.93
64961;SHT31;51487;52.266;10.542;2023-08-12T15:15:49;24.32;90.15
64961;SHT31;51487;52.266;10.542;2023-08-12T15:18:16;24.50;89.27
64961;SHT31;51487;52.266;10.542;2023-08-12T15:20:42;24.64;88.58